Latest Weather Observations for Witchcliffe

IDW60801

Issued at 9:32 pm WST Sunday 30 August 2015 (issued every 30 minutes, with the page automatically refreshed every 10 minutes)

About weather observations | Map of weather stations | Latest weather observations for WA | Other Formats
Station Details ID: 009746 Name: WITCHCLIFFE Lat: -34.03 Lon: 115.10 Height: 80.0 m
Data from the previous 72 hours. | See also: Recent months at Witchcliffe
Date/Time
WST
Temp
°C
App
Temp
°C
Dew
Point
Rel
Hum
%
Delta-T
°C
Wind Press
QNH
hPa
Press
MSL
hPa
Rain
since 9 am
mm
Dir
 
Spd
km/h
Gust
km/h
Spd
kts
Gust
kts
30/09:30pm 9.2 6.7 8.3 94 0.4 NNE 11 17 6 9 1021.1 1021.1 0.8
30/09:00pm 8.3 6.8 6.9 91 0.7 N 4 7 2 4 1021.1 1021.1 0.2
30/08:30pm 9.0 8.3 7.1 88 0.9 CALM 0 0 0 0 1021.0 1021.0 0.2
30/08:00pm 9.6 8.9 7.0 84 1.2 CALM 0 0 0 0 1021.1 1021.1 0.2
30/07:30pm 10.2 7.4 7.1 81 1.5 NNW 11 17 6 9 1021.0 1021.0 0.2
30/07:00pm 9.5 7.6 6.6 82 1.4 N 6 7 3 4 1020.7 1020.7 0.0
30/06:30pm 9.6 7.3 5.6 76 1.8 NNW 7 9 4 5 1020.5 1020.5 0.0
30/06:00pm 11.1 10.1 5.8 70 2.5 CALM 0 0 0 0 1020.4 1020.4 0.0
30/05:30pm 12.1 10.3 5.5 64 3.1 WNW 4 7 2 4 1020.3 1020.3 0.0
30/05:00pm 12.4 9.5 4.6 59 3.6 W 9 13 5 7 1020.2 1020.2 0.0
30/04:30pm 13.9 10.1 3.9 51 4.6 W 13 20 7 11 1020.1 1020.1 0.0
30/04:00pm 14.1 10.4 4.4 52 4.5 SW 13 19 7 10 1020.1 1020.1 0.0
30/03:30pm 13.9 10.4 5.3 56 4.0 WSW 13 20 7 11 1020.1 1020.1 0.0
30/03:00pm 15.2 11.3 5.4 52 4.7 W 15 24 8 13 1019.8 1019.9 0.0
30/02:30pm 15.1 11.6 5.3 52 4.7 WNW 13 24 7 13 1019.6 1019.7 0.0
30/02:00pm 14.1 10.0 4.4 52 4.5 WSW 15 28 8 15 1019.5 1019.6 0.0
30/01:30pm 13.7 9.1 3.8 51 4.5 SW 17 28 9 15 1019.5 1019.6 0.0
30/01:00pm 13.9 9.4 6.0 59 3.8 SW 19 28 10 15 1019.7 1019.8 0.0
30/12:30pm 13.6 9.2 4.5 54 4.2 SW 17 26 9 14 1019.8 1019.9 0.0
30/12:00pm 13.5 9.9 4.9 56 4.0 WSW 13 20 7 11 1020.2 1020.2 0.0
30/11:30am 13.7 10.3 6.1 60 3.6 WSW 13 28 7 15 1020.1 1020.1 0.0
30/11:00am 13.0 10.2 6.8 66 3.0 WSW 11 19 6 10 1020.4 1020.4 0.0
30/10:30am 12.2 8.3 7.3 72 2.4 WSW 17 28 9 15 1020.4 1020.4 0.0
30/10:00am 12.9 8.9 6.7 66 3.0 WSW 17 35 9 19 1019.7 1019.8 0.0
30/09:30am 13.3 11.2 8.4 72 2.5 SSW 9 15 5 8 1019.5 1019.6 0.0
30/09:00am 11.3 8.3 7.6 78 1.8 SW 13 24 7 13 1019.4 1019.5 8.2
30/08:30am 11.1 8.2 6.6 74 2.1 W 11 28 6 15 1019.1 1019.2 8.2
30/08:00am 10.2 5.6 5.4 72 2.2 SW 19 32 10 17 1018.3 1018.4 8.2
30/07:30am 10.4 8.9 5.0 69 2.5 SE 2 7 1 4 1017.8 1017.9 6.8
30/07:00am 10.8 7.8 4.0 63 3.0 SW 9 17 5 9 1017.3 1017.3 6.8
30/06:30am 11.0 8.0 4.2 63 3.1 WSW 9 20 5 11 1016.8 1016.8 6.8
30/06:00am 10.9 6.9 4.8 66 2.8 SW 15 24 8 13 1016.3 1016.3 6.8
30/05:30am 11.5 6.9 3.8 59 3.4 WSW 17 24 9 13 1015.8 1015.8 6.8
30/05:00am 12.0 8.4 5.2 63 3.1 SW 13 19 7 10 1015.3 1015.3 6.8
30/04:30am 11.9 7.5 4.6 61 3.3 WSW 17 30 9 16 1014.9 1014.9 6.8
30/04:00am 12.1 7.9 5.5 64 3.1 WSW 17 28 9 15 1014.7 1014.7 6.8
30/03:30am 12.4 9.1 7.9 74 2.2 WSW 15 26 8 14 1014.4 1014.4 6.8
30/03:00am 12.4 8.2 7.3 71 2.5 WSW 19 28 10 15 1014.4 1014.4 6.8
30/02:30am 12.3 7.7 8.2 76 2.0 WSW 22 37 12 20 1014.5 1014.5 6.8
30/02:00am 12.3 8.9 9.0 80 1.7 W 17 28 9 15 1014.2 1014.2 6.8
30/01:30am 12.3 8.5 9.0 80 1.7 WSW 19 32 10 17 1013.9 1013.9 6.8
30/01:00am 12.9 9.8 9.0 77 2.0 W 15 24 8 13 1013.5 1013.5 6.8
30/12:30am 13.2 8.6 9.6 79 1.8 WSW 24 37 13 20 1013.2 1013.2 6.8
30/12:00am 13.6 9.3 8.0 69 2.8 W 20 30 11 16 1012.8 1012.8 6.8
 
Date/Time
WST
Temp
°C
App
Temp
°C
Dew
Point
Rel
Hum
%
Delta-T
°C
Wind Press
QNH
hPa
Press
MSL
hPa
Rain
since 9 am
mm
Dir
 
Spd
km/h
Gust
km/h
Spd
kts
Gust
kts
29/11:30pm 13.6 10.0 8.2 70 2.7 W 17 28 9 15 1012.7 1012.7 6.8
29/11:00pm 13.8 9.8 8.4 70 2.7 W 19 32 10 17 1012.5 1012.5 6.8
29/10:30pm 13.5 10.6 9.6 77 2.0 WNW 15 24 8 13 1012.5 1012.5 6.8
29/10:00pm 13.7 11.5 10.9 83 1.5 WNW 13 22 7 12 1012.5 1012.5 6.8
29/09:30pm 14.1 10.6 10.1 77 2.1 WNW 19 30 10 16 1012.6 1012.6 6.4
29/09:00pm 13.7 11.5 10.9 83 1.5 WNW 13 20 7 11 1012.0 1012.0 6.4
29/08:30pm 12.7 11.3 12.2 97 0.3 WNW 11 15 6 8 1011.9 1011.9 6.4
29/08:00pm 11.8 11.0 11.6 99 0.1 NW 7 13 4 7 1011.7 1011.7 6.4
29/07:30pm 11.6 12.0 11.3 98 0.2 CALM 0 0 0 0 1011.5 1011.5 6.4
29/07:00pm 12.3 12.1 11.8 97 0.3 NNW 4 7 2 4 1011.5 1011.5 6.4
29/06:30pm 12.9 12.4 12.0 94 0.5 NNW 6 9 3 5 1011.2 1011.2 6.4
29/06:00pm 13.1 11.5 11.5 90 0.9 NW 11 17 6 9 1011.1 1011.1 6.4
29/05:30pm 14.1 12.7 10.9 81 1.7 WNW 9 13 5 7 1010.7 1010.7 5.8
29/05:00pm 15.1 13.1 10.3 73 2.5 WNW 11 22 6 12 1010.4 1010.4 5.4
29/04:30pm 15.5 13.6 11.9 79 2.0 W 13 26 7 14 1010.1 1010.1 5.4
29/04:00pm 15.6 15.6 13.6 88 1.1 WNW 6 13 3 7 1010.1 1010.1 5.4
29/03:30pm 15.3 13.6 12.4 83 1.6 W 13 24 7 13 1009.9 1009.9 5.4
29/03:00pm 16.3 13.8 12.3 77 2.2 W 17 26 9 14 1009.6 1009.6 5.2
29/02:30pm 16.3 13.8 12.3 77 2.2 WSW 17 24 9 13 1009.1 1009.1 5.2
29/02:00pm 17.0 15.1 14.3 84 1.6 WSW 17 28 9 15 1008.7 1008.7 5.2
29/01:30pm 16.3 14.2 15.3 94 0.6 W 20 37 11 20 1008.3 1008.3 5.2
29/01:00pm 15.6 14.1 15.4 99 0.1 W 17 26 9 14 1008.2 1008.2 5.2
29/12:30pm 14.3 12.2 13.5 95 0.4 W 17 32 9 17 1008.7 1008.7 4.8
29/12:00pm 16.1 12.2 14.5 90 0.9 NNW 28 41 15 22 1008.6 1008.6 0.8
29/11:30am 17.8 13.0 14.5 81 1.9 NNW 33 54 18 29 1008.2 1008.2 0.0
29/11:26am 17.9 14.1 14.6 81 1.9 NNW 28 46 15 25 1008.2 1008.2 0.0
29/11:00am 18.2 15.4 15.3 83 1.7 NNW 24 39 13 21 1008.8 1008.8 0.0
29/10:30am 17.7 15.1 15.0 84 1.6 NNW 22 32 12 17 1009.4 1009.4 0.0
29/10:00am 17.0 14.3 15.5 91 0.9 NNW 24 35 13 19 1009.7 1009.7 0.0
29/09:30am 16.8 13.3 16.6 99 0.1 NNW 30 46 16 25 1009.8 1009.8 0.0
29/09:00am 15.5 11.5 15.3 99 0.1 N 30 54 16 29 1010.0 1010.0 7.4
29/08:56am 15.2 13.0 15.0 99 0.1 N 20 54 11 29 1010.0 1010.0 7.2
29/08:30am 15.4 14.6 15.2 99 0.1 N 13 17 7 9 1010.1 1010.1 1.2
29/08:00am 14.8 13.3 14.3 97 0.3 N 15 19 8 10 1010.5 1010.5 1.0
29/07:30am 14.3 13.1 14.1 99 0.1 N 13 17 7 9 1010.3 1010.3 0.6
29/07:00am 13.7 12.3 13.5 99 0.1 N 13 15 7 8 1010.3 1010.3 0.2
29/06:30am 13.0 12.5 12.8 99 0.1 N 7 13 4 7 1010.4 1010.4 0.2
29/06:00am 12.3 11.6 12.1 99 0.1 N 7 9 4 5 1010.2 1010.2 0.2
29/05:30am 12.1 12.7 11.9 99 0.1 CALM 0 0 0 0 1010.5 1010.5 0.2
29/05:00am 12.9 12.0 12.7 99 0.1 N 9 9 5 5 1010.7 1010.7 0.2
29/04:30am 13.1 12.3 12.9 99 0.1 N 9 11 5 6 1010.7 1010.7 0.2
29/04:00am 13.1 12.3 12.9 99 0.1 N 9 15 5 8 1010.8 1010.8 0.2
29/03:30am 13.2 11.7 13.0 99 0.1 N 13 19 7 10 1011.0 1011.0 0.2
29/03:00am 12.8 11.9 12.6 99 0.1 N 9 17 5 9 1011.3 1011.3 0.2
29/02:30am 12.6 10.9 12.4 99 0.1 N 13 17 7 9 1011.6 1011.6 0.2
29/02:00am 12.6 11.2 12.3 98 0.2 N 11 15 6 8 1012.0 1012.0 0.2
29/01:30am 12.4 10.9 11.8 96 0.3 N 11 13 6 7 1012.4 1012.4 0.2
29/01:00am 12.7 10.9 12.1 96 0.3 N 13 17 7 9 1012.7 1012.7 0.2
29/12:30am 12.3 10.7 11.4 94 0.5 N 11 13 6 7 1013.1 1013.1 0.2
29/12:00am 11.2 9.5 9.9 92 0.7 N 9 13 5 7 1013.2 1013.2 0.2
 
Date/Time
WST
Temp
°C
App
Temp
°C
Dew
Point
Rel
Hum
%
Delta-T
°C
Wind Press
QNH
hPa
Press
MSL
hPa
Rain
since 9 am
mm
Dir
 
Spd
km/h
Gust
km/h
Spd
kts
Gust
kts
28/11:30pm 10.9 9.1 9.5 91 0.7 N 9 11 5 6 1013.6 1013.6 0.2
28/11:00pm 11.1 10.6 9.5 90 0.8 NNE 2 7 1 4 1013.9 1013.9 0.2
28/10:30pm 11.5 11.4 9.4 87 1.1 CALM 0 0 0 0 1014.3 1014.3 0.2
28/10:00pm 12.2 12.2 9.9 86 1.2 CALM 0 0 0 0 1014.5 1014.5 0.2
28/09:30pm 12.5 11.5 10.2 86 1.2 NNW 6 7 3 4 1015.0 1015.0 0.2
28/09:00pm 12.1 10.7 9.7 85 1.2 N 7 9 4 5 1014.9 1014.9 0.2
28/08:30pm 12.0 10.5 9.2 83 1.4 N 7 9 4 5 1014.9 1014.9 0.2
28/08:00pm 12.2 10.2 8.7 79 1.7 NNW 9 11 5 6 1014.8 1014.8 0.2
28/07:30pm 14.4 12.5 9.0 70 2.8 NW 9 17 5 9 1014.9 1014.9 0.2
28/07:00pm 14.4 12.6 9.4 72 2.6 NW 9 13 5 7 1014.8 1014.8 0.2
28/06:30pm 14.1 12.6 9.3 73 2.5 NNW 7 9 4 5 1014.5 1014.5 0.2
28/06:00pm 14.7 13.1 8.9 68 3.0 NW 7 11 4 6 1014.2 1014.2 0.2
28/05:30pm 15.2 13.2 8.7 65 3.3 NW 9 15 5 8 1014.2 1014.2 0.2
28/05:00pm 15.8 13.1 8.8 63 3.6 WNW 13 20 7 11 1014.1 1014.1 0.2
28/04:30pm 16.6 13.6 9.3 62 3.8 WNW 15 24 8 13 1014.0 1014.0 0.2
28/04:00pm 16.6 13.1 8.6 59 4.1 WNW 17 24 9 13 1013.8 1013.8 0.2
28/03:30pm 17.1 13.5 8.5 57 4.4 WNW 17 26 9 14 1013.8 1013.8 0.2
28/03:00pm 17.7 14.7 9.3 58 4.4 WNW 15 26 8 14 1013.8 1013.8 0.2
28/02:30pm 17.2 13.9 9.4 60 4.1 W 17 24 9 13 1013.7 1013.7 0.2
28/02:00pm 16.6 12.5 8.6 59 4.1 W 20 37 11 20 1013.8 1013.8 0.2
28/01:30pm 17.1 13.7 9.3 60 4.1 WNW 17 26 9 14 1013.9 1013.9 0.2
28/01:00pm 18.4 15.2 10.0 58 4.5 WNW 17 26 9 14 1014.0 1014.0 0.2
28/12:30pm 17.6 13.7 8.7 56 4.6 WNW 19 30 10 16 1014.4 1014.4 0.2
28/12:00pm 16.8 13.1 9.5 62 3.8 WNW 19 32 10 17 1014.5 1014.5 0.2
28/11:30am 17.8 14.7 10.4 62 4.0 WNW 17 26 9 14 1014.7 1014.7 0.2
28/11:00am 17.7 14.4 11.0 65 3.6 WNW 19 28 10 15 1014.6 1014.6 0.2
28/10:30am 17.6 13.9 11.4 67 3.4 W 22 32 12 17 1014.5 1014.5 0.2
28/10:00am 16.6 13.8 11.3 71 2.9 WNW 17 26 9 14 1014.5 1014.5 0.2
28/09:30am 16.7 15.3 13.4 81 1.9 WNW 13 20 7 11 1014.5 1014.5 0.2
28/09:00am 16.9 15.6 12.4 75 2.5 W 11 22 6 12 1014.2 1014.2 0.2
28/08:30am 15.0 12.9 11.2 78 2.0 W 13 19 7 10 1014.4 1014.4 0.2
28/08:00am 16.2 14.9 12.6 79 2.0 WNW 11 17 6 9 1013.9 1013.9 0.2
28/07:30am 15.7 14.0 12.6 82 1.7 WNW 13 19 7 10 1013.6 1013.6 0.2
28/07:00am 14.9 13.5 12.2 84 1.5 WNW 11 20 6 11 1013.2 1013.2 0.2
28/06:30am 15.1 13.6 11.9 81 1.7 NW 11 15 6 8 1012.8 1012.8 0.2
28/06:00am 15.7 13.6 12.5 81 1.8 WNW 15 28 8 15 1012.6 1012.6 0.2
28/05:30am 16.0 14.3 12.6 80 1.9 NW 13 20 7 11 1012.6 1012.6 0.2
28/05:00am 15.6 14.1 14.3 92 0.7 NW 15 24 8 13 1012.2 1012.2 0.2
28/04:30am 13.8 13.2 13.6 99 0.1 NNW 9 15 5 8 1012.2 1012.2 0.2
28/04:00am 12.3 11.6 12.1 99 0.1 N 7 9 4 5 1012.2 1012.2 0.2
28/03:30am 12.3 11.2 12.0 98 0.2 NNW 9 13 5 7 1012.4 1012.4 0.2
28/03:00am 11.4 9.8 10.3 93 0.6 NNW 9 11 5 6 1012.5 1012.5 0.2
28/02:30am 11.5 9.8 9.8 89 0.9 NNW 9 11 5 6 1012.7 1012.7 0.2
28/02:00am 11.2 9.2 8.8 85 1.2 NNW 9 13 5 7 1012.7 1012.7 0.2
28/01:30am 12.0 10.0 8.7 80 1.6 NNW 9 13 5 7 1012.8 1012.8 0.2
28/01:00am 11.7 8.7 7.6 76 2.0 NNW 13 19 7 10 1012.5 1012.5 0.2
28/12:30am 11.6 8.8 6.9 73 2.2 N 11 13 6 7 1012.4 1012.4 0.2
28/12:00am 12.7 9.6 7.2 69 2.7 NNW 13 17 7 9 1012.6 1012.6 0.2
 
Date/Time
WST
Temp
°C
App
Temp
°C
Dew
Point
Rel
Hum
%
Delta-T
°C
Wind Press
QNH
hPa
Press
MSL
hPa
Rain
since 9 am
mm
Dir
 
Spd
km/h
Gust
km/h
Spd
kts
Gust
kts
27/11:30pm 13.2 9.7 7.4 68 2.8 N 15 19 8 10 1012.5 1012.5 0.2
27/11:00pm 12.1 9.7 7.0 71 2.5 N 9 15 5 8 1012.7 1012.7 0.2
27/10:30pm 11.0 10.4 7.5 79 1.7 CALM 0 6 0 3 1013.1 1013.1 0.2
27/10:00pm 10.3 9.9 8.1 86 1.1 CALM 0 0 0 0 1013.3 1013.3 0.2

Other Formats:

Comma delimited format used in spreadsheet applications
http://www.bom.gov.au/fwo/IDW60801/IDW60801.95641.axf

JavaScript Object Notation format (JSON) in row-major order
http://www.bom.gov.au/fwo/IDW60801/IDW60801.95641.json